CheckWX is a tool to help pilots better visualize weather data.  It is not intended as a substitute for an official pre-flight weather briefing.

12:30:10 UTC

LTAJ TAF
Gaziantep International Airport
Gaziantep, Turkey
TAF LTAJ 041640Z 0418/0518 VRB02KT CAVOK BECMG 0422/0424 FEW040 BKN100 BECMG 0506/0508 07014KT

Apr-4@
18:00 UTC

Apr-4 @ 18:00 UTC

Apr-4@
22:00 UTC

Apr-4 @ 22:00 UTC

TAF LTAJ 041640Z 0418/0518 VRB02KT CAVOK

Expired

Wind
  • Variable at 2 KTS
Conditions
No significant weather
Cloud Levels
  • No significant clouds

Apr-4@
22:00 UTC

Apr-4 @ 22:00 UTC

Apr-5@
06:00 UTC

Apr-5 @ 06:00 UTC

BECMG 0422/0424 FEW040 BKN100

Expired

Wind
  • Variable at 2 KTS
Conditions
No significant weather
Cloud Levels
  • Few at 4,000' AGL
  • Broken at 10,000' AGL

Apr-5@
06:00 UTC

Apr-5 @ 06:00 UTC

Apr-5@
18:00 UTC

Apr-5 @ 18:00 UTC

BECMG 0506/0508 07014KT

Becoming

Becoming Conditions expected by Sun, Apr 5, 2020 @ 08:00 UTC

Wind
  • 070° at 14 KTS
Conditions
No significant weather
Cloud Levels
  • Few at 4,000' AGL
  • Broken at 10,000' AGL